sensor_id;sensor_type;location;lat;lon;timestamp;temperature;humidity
44461;DHT22;30162;53.642;10.640;2022-10-16T00:00:43;17.80;93.10
44461;DHT22;30162;53.642;10.640;2022-10-16T00:03:10;17.90;93.20
44461;DHT22;30162;53.642;10.640;2022-10-16T00:05:43;17.80;93.10
44461;DHT22;30162;53.642;10.640;2022-10-16T00:08:11;17.90;93.20
44461;DHT22;30162;53.642;10.640;2022-10-16T00:10:37;17.80;93.30
44461;DHT22;30162;53.642;10.640;2022-10-16T00:13:03;17.70;93.30
44461;DHT22;30162;53.642;10.640;2022-10-16T00:15:30;17.70;93.50
44461;DHT22;30162;53.642;10.640;2022-10-16T00:17:55;17.70;93.50
44461;DHT22;30162;53.642;10.640;2022-10-16T00:20:21;17.70;93.40
44461;DHT22;30162;53.642;10.640;2022-10-16T00:22:46;17.60;93.60
44461;DHT22;30162;53.642;10.640;2022-10-16T00:25:12;17.70;93.40
44461;DHT22;30162;53.642;10.640;2022-10-16T00:27:37;17.70;93.30
44461;DHT22;30162;53.642;10.640;2022-10-16T00:30:03;17.70;93.30
44461;DHT22;30162;53.642;10.640;2022-10-16T00:32:29;17.60;93.60
44461;DHT22;30162;53.642;10.640;2022-10-16T00:34:55;17.60;93.90
44461;DHT22;30162;53.642;10.640;2022-10-16T00:37:20;17.70;93.70
44461;DHT22;30162;53.642;10.640;2022-10-16T00:39:46;17.70;93.50
44461;DHT22;30162;53.642;10.640;2022-10-16T00:42:16;17.70;93.40
44461;DHT22;30162;53.642;10.640;2022-10-16T00:47:29;17.60;93.40
44461;DHT22;30162;53.642;10.640;2022-10-16T00:50:09;17.50;93.40
44461;DHT22;30162;53.642;10.640;2022-10-16T00:52:35;17.40;93.70
44461;DHT22;30162;53.642;10.640;2022-10-16T00:55:03;17.40;93.70
44461;DHT22;30162;53.642;10.640;2022-10-16T00:57:29;17.40;93.50
44461;DHT22;30162;53.642;10.640;2022-10-16T00:59:55;17.40;93.70
44461;DHT22;30162;53.642;10.640;2022-10-16T01:02:22;17.10;93.70
44461;DHT22;30162;53.642;10.640;2022-10-16T01:04:50;17.10;93.90
44461;DHT22;30162;53.642;10.640;2022-10-16T01:07:26;17.10;93.90
44461;DHT22;30162;53.642;10.640;2022-10-16T01:15:37;17.10;93.90
44461;DHT22;30162;53.642;10.640;2022-10-16T01:18:11;17.10;93.90
44461;DHT22;30162;53.642;10.640;2022-10-16T01:30:10;16.90;93.70
44461;DHT22;30162;53.642;10.640;2022-10-16T01:35:05;16.70;93.80
44461;DHT22;30162;53.642;10.640;2022-10-16T01:37:44;16.70;93.70
44461;DHT22;30162;53.642;10.640;2022-10-16T01:40:13;16.60;93.80
44461;DHT22;30162;53.642;10.640;2022-10-16T01:42:43;16.40;94.30
44461;DHT22;30162;53.642;10.640;2022-10-16T01:45:13;16.70;94.10
44461;DHT22;30162;53.642;10.640;2022-10-16T01:47:40;16.60;93.90
44461;DHT22;30162;53.642;10.640;2022-10-16T01:50:08;16.60;94.20
44461;DHT22;30162;53.642;10.640;2022-10-16T01:52:37;16.60;94.20
44461;DHT22;30162;53.642;10.640;2022-10-16T01:55:06;16.60;94.30
44461;DHT22;30162;53.642;10.640;2022-10-16T01:57:34;16.70;94.00
44461;DHT22;30162;53.642;10.640;2022-10-16T02:00:07;16.70;94.20
44461;DHT22;30162;53.642;10.640;2022-10-16T02:02:34;16.70;93.90
44461;DHT22;30162;53.642;10.640;2022-10-16T02:05:27;16.80;93.80
44461;DHT22;30162;53.642;10.640;2022-10-16T02:07:54;16.70;93.80
44461;DHT22;30162;53.642;10.640;2022-10-16T02:10:20;16.60;94.10
44461;DHT22;30162;53.642;10.640;2022-10-16T02:12:51;16.70;93.80
44461;DHT22;30162;53.642;10.640;2022-10-16T02:15:19;16.70;93.90
44461;DHT22;30162;53.642;10.640;2022-10-16T02:17:44;16.60;93.80
44461;DHT22;30162;53.642;10.640;2022-10-16T02:20:10;16.70;93.80
44461;DHT22;30162;53.642;10.640;2022-10-16T02:22:40;16.80;93.50
44461;DHT22;30162;53.642;10.640;2022-10-16T02:25:19;16.70;93.70
44461;DHT22;30162;53.642;10.640;2022-10-16T02:28:07;16.70;93.80
44461;DHT22;30162;53.642;10.640;2022-10-16T02:30:39;16.70;93.70
44461;DHT22;30162;53.642;10.640;2022-10-16T02:33:08;16.60;93.70
44461;DHT22;30162;53.642;10.640;2022-10-16T02:35:35;16.70;93.50
44461;DHT22;30162;53.642;10.640;2022-10-16T02:38:01;16.70;93.30
44461;DHT22;30162;53.642;10.640;2022-10-16T02:40:27;16.70;93.30
44461;DHT22;30162;53.642;10.640;2022-10-16T02:42:54;16.40;93.90
44461;DHT22;30162;53.642;10.640;2022-10-16T02:45:21;16.50;94.00
44461;DHT22;30162;53.642;10.640;2022-10-16T02:47:47;16.60;93.80
44461;DHT22;30162;53.642;10.640;2022-10-16T02:50:12;16.60;93.70
44461;DHT22;30162;53.642;10.640;2022-10-16T02:52:38;16.60;93.50
44461;DHT22;30162;53.642;10.640;2022-10-16T02:55:04;16.50;93.30
44461;DHT22;30162;53.642;10.640;2022-10-16T02:57:29;16.50;93.60
44461;DHT22;30162;53.642;10.640;2022-10-16T02:59:56;16.50;93.40
44461;DHT22;30162;53.642;10.640;2022-10-16T03:02:22;16.50;93.30
44461;DHT22;30162;53.642;10.640;2022-10-16T03:04:47;16.50;93.20
44461;DHT22;30162;53.642;10.640;2022-10-16T03:07:13;16.50;93.20
44461;DHT22;30162;53.642;10.640;2022-10-16T03:09:38;16.10;93.60
44461;DHT22;30162;53.642;10.640;2022-10-16T03:12:04;16.20;93.90
44461;DHT22;30162;53.642;10.640;2022-10-16T03:14:29;16.30;93.60
44461;DHT22;30162;53.642;10.640;2022-10-16T03:16:55;16.40;93.40
44461;DHT22;30162;53.642;10.640;2022-10-16T03:19:20;16.50;93.30
44461;DHT22;30162;53.642;10.640;2022-10-16T03:21:46;16.50;93.00
44461;DHT22;30162;53.642;10.640;2022-10-16T03:24:11;16.40;92.70
44461;DHT22;30162;53.642;10.640;2022-10-16T03:26:37;16.30;93.00
44461;DHT22;30162;53.642;10.640;2022-10-16T03:29:03;16.30;92.90
44461;DHT22;30162;53.642;10.640;2022-10-16T03:31:29;16.20;93.00
44461;DHT22;30162;53.642;10.640;2022-10-16T03:33:55;16.20;92.90
44461;DHT22;30162;53.642;10.640;2022-10-16T03:36:21;16.10;93.00
44461;DHT22;30162;53.642;10.640;2022-10-16T03:38:46;16.20;92.80
44461;DHT22;30162;53.642;10.640;2022-10-16T03:41:12;16.10;92.60
44461;DHT22;30162;53.642;10.640;2022-10-16T03:43:37;16.00;92.70
44461;DHT22;30162;53.642;10.640;2022-10-16T03:46:03;15.90;92.60
44461;DHT22;30162;53.642;10.640;2022-10-16T03:48:29;15.80;93.00
44461;DHT22;30162;53.642;10.640;2022-10-16T03:50:55;15.60;92.90
44461;DHT22;30162;53.642;10.640;2022-10-16T03:53:20;15.70;93.20
44461;DHT22;30162;53.642;10.640;2022-10-16T03:55:46;15.80;92.90
44461;DHT22;30162;53.642;10.640;2022-10-16T03:58:12;15.70;93.00
44461;DHT22;30162;53.642;10.640;2022-10-16T04:00:44;15.60;93.20
44461;DHT22;30162;53.642;10.640;2022-10-16T04:03:11;15.60;93.40
44461;DHT22;30162;53.642;10.640;2022-10-16T04:05:37;15.50;93.20
44461;DHT22;30162;53.642;10.640;2022-10-16T04:08:02;15.30;93.60
44461;DHT22;30162;53.642;10.640;2022-10-16T04:10:28;15.20;93.80
44461;DHT22;30162;53.642;10.640;2022-10-16T04:12:54;15.30;94.10
44461;DHT22;30162;53.642;10.640;2022-10-16T04:15:21;15.50;93.80
44461;DHT22;30162;53.642;10.640;2022-10-16T04:17:47;15.50;93.40
44461;DHT22;30162;53.642;10.640;2022-10-16T04:20:12;15.50;93.40
44461;DHT22;30162;53.642;10.640;2022-10-16T04:22:38;15.60;93.40
44461;DHT22;30162;53.642;10.640;2022-10-16T04:25:04;15.60;93.30
44461;DHT22;30162;53.642;10.640;2022-10-16T04:27:30;15.60;93.30
44461;DHT22;30162;53.642;10.640;2022-10-16T04:29:57;15.60;93.30
44461;DHT22;30162;53.642;10.640;2022-10-16T04:32:22;15.60;93.30
44461;DHT22;30162;53.642;10.640;2022-10-16T04:34:48;15.60;93.10
44461;DHT22;30162;53.642;10.640;2022-10-16T04:37:13;15.50;93.20
44461;DHT22;30162;53.642;10.640;2022-10-16T04:39:39;15.30;93.40
44461;DHT22;30162;53.642;10.640;2022-10-16T04:42:04;15.30;93.50
44461;DHT22;30162;53.642;10.640;2022-10-16T04:44:30;15.30;93.40
44461;DHT22;30162;53.642;10.640;2022-10-16T04:46:55;15.50;93.30
44461;DHT22;30162;53.642;10.640;2022-10-16T04:49:21;15.50;93.10
44461;DHT22;30162;53.642;10.640;2022-10-16T04:51:46;15.50;93.30
44461;DHT22;30162;53.642;10.640;2022-10-16T04:54:12;15.50;93.10
44461;DHT22;30162;53.642;10.640;2022-10-16T04:56:38;15.50;93.20
44461;DHT22;30162;53.642;10.640;2022-10-16T04:59:12;15.50;93.10
44461;DHT22;30162;53.642;10.640;2022-10-16T05:01:37;15.50;93.30
44461;DHT22;30162;53.642;10.640;2022-10-16T05:04:03;15.50;93.00
44461;DHT22;30162;53.642;10.640;2022-10-16T05:06:29;15.40;93.20
44461;DHT22;30162;53.642;10.640;2022-10-16T05:08:55;15.50;93.10
44461;DHT22;30162;53.642;10.640;2022-10-16T05:11:20;15.60;93.00
44461;DHT22;30162;53.642;10.640;2022-10-16T05:13:46;15.60;93.00
44461;DHT22;30162;53.642;10.640;2022-10-16T05:16:12;15.60;93.00
44461;DHT22;30162;53.642;10.640;2022-10-16T05:18:37;15.50;92.90
44461;DHT22;30162;53.642;10.640;2022-10-16T05:21:03;15.50;93.00
44461;DHT22;30162;53.642;10.640;2022-10-16T05:23:29;15.40;93.00
44461;DHT22;30162;53.642;10.640;2022-10-16T05:25:55;15.60;92.80
44461;DHT22;30162;53.642;10.640;2022-10-16T05:28:26;15.40;92.80
44461;DHT22;30162;53.642;10.640;2022-10-16T05:30:52;15.30;92.80
44461;DHT22;30162;53.642;10.640;2022-10-16T05:33:20;15.30;93.00
44461;DHT22;30162;53.642;10.640;2022-10-16T05:35:46;15.30;93.20
44461;DHT22;30162;53.642;10.640;2022-10-16T05:38:11;15.40;93.10
44461;DHT22;30162;53.642;10.640;2022-10-16T05:40:37;15.30;93.00
44461;DHT22;30162;53.642;10.640;2022-10-16T05:43:03;15.40;93.30
44461;DHT22;30162;53.642;10.640;2022-10-16T05:45:28;15.50;93.00
44461;DHT22;30162;53.642;10.640;2022-10-16T05:47:54;15.40;93.10
44461;DHT22;30162;53.642;10.640;2022-10-16T05:50:20;15.50;93.30
44461;DHT22;30162;53.642;10.640;2022-10-16T05:52:45;15.50;93.00
44461;DHT22;30162;53.642;10.640;2022-10-16T05:55:11;15.40;93.00
44461;DHT22;30162;53.642;10.640;2022-10-16T05:57:36;15.40;92.90
44461;DHT22;30162;53.642;10.640;2022-10-16T06:00:02;15.20;93.10
44461;DHT22;30162;53.642;10.640;2022-10-16T06:02:28;15.30;93.00
44461;DHT22;30162;53.642;10.640;2022-10-16T06:04:54;15.20;93.10
44461;DHT22;30162;53.642;10.640;2022-10-16T06:07:20;15.20;93.20
44461;DHT22;30162;53.642;10.640;2022-10-16T06:09:50;15.30;93.10
44461;DHT22;30162;53.642;10.640;2022-10-16T06:12:16;15.30;93.00
44461;DHT22;30162;53.642;10.640;2022-10-16T06:14:41;15.40;93.00
44461;DHT22;30162;53.642;10.640;2022-10-16T06:17:07;15.30;93.10
44461;DHT22;30162;53.642;10.640;2022-10-16T06:19:33;15.30;93.20
44461;DHT22;30162;53.642;10.640;2022-10-16T06:21:58;15.40;93.30
44461;DHT22;30162;53.642;10.640;2022-10-16T06:24:25;15.40;93.10
44461;DHT22;30162;53.642;10.640;2022-10-16T06:26:50;15.40;93.20
44461;DHT22;30162;53.642;10.640;2022-10-16T06:29:16;15.40;93.40
44461;DHT22;30162;53.642;10.640;2022-10-16T06:31:42;15.40;93.30
44461;DHT22;30162;53.642;10.640;2022-10-16T06:34:09;15.50;93.50
44461;DHT22;30162;53.642;10.640;2022-10-16T06:36:37;15.60;93.50
44461;DHT22;30162;53.642;10.640;2022-10-16T06:39:03;15.60;93.20
44461;DHT22;30162;53.642;10.640;2022-10-16T06:41:30;15.50;93.40
44461;DHT22;30162;53.642;10.640;2022-10-16T06:43:55;15.50;93.60
44461;DHT22;30162;53.642;10.640;2022-10-16T06:46:23;15.60;93.70
44461;DHT22;30162;53.642;10.640;2022-10-16T06:48:49;15.70;93.50
44461;DHT22;30162;53.642;10.640;2022-10-16T06:51:17;15.70;93.30
44461;DHT22;30162;53.642;10.640;2022-10-16T06:53:53;15.60;93.40
44461;DHT22;30162;53.642;10.640;2022-10-16T06:56:23;15.60;93.40
44461;DHT22;30162;53.642;10.640;2022-10-16T06:58:49;15.70;93.30
44461;DHT22;30162;53.642;10.640;2022-10-16T07:01:17;15.70;93.20
44461;DHT22;30162;53.642;10.640;2022-10-16T07:03:44;15.90;93.10
44461;DHT22;30162;53.642;10.640;2022-10-16T07:06:13;15.60;93.20
44461;DHT22;30162;53.642;10.640;2022-10-16T07:08:40;15.70;93.30
44461;DHT22;30162;53.642;10.640;2022-10-16T07:11:08;15.50;93.40
44461;DHT22;30162;53.642;10.640;2022-10-16T07:13:38;15.70;93.40
44461;DHT22;30162;53.642;10.640;2022-10-16T07:16:09;15.70;93.10
44461;DHT22;30162;53.642;10.640;2022-10-16T07:18:35;15.70;93.50
44461;DHT22;30162;53.642;10.640;2022-10-16T07:21:10;15.90;93.20
44461;DHT22;30162;53.642;10.640;2022-10-16T07:23:36;15.90;93.00
44461;DHT22;30162;53.642;10.640;2022-10-16T07:26:03;15.90;93.30
44461;DHT22;30162;53.642;10.640;2022-10-16T07:28:29;16.00;93.00
44461;DHT22;30162;53.642;10.640;2022-10-16T07:30:55;16.10;93.40
44461;DHT22;30162;53.642;10.640;2022-10-16T07:33:21;16.30;93.30
44461;DHT22;30162;53.642;10.640;2022-10-16T07:35:48;16.30;93.10
44461;DHT22;30162;53.642;10.640;2022-10-16T07:38:14;16.60;93.00
44461;DHT22;30162;53.642;10.640;2022-10-16T07:40:40;17.00;92.60
44461;DHT22;30162;53.642;10.640;2022-10-16T07:43:05;17.70;91.30
44461;DHT22;30162;53.642;10.640;2022-10-16T07:45:31;18.80;90.00
44461;DHT22;30162;53.642;10.640;2022-10-16T07:47:56;19.70;87.70
44461;DHT22;30162;53.642;10.640;2022-10-16T07:50:22;20.20;86.20
44461;DHT22;30162;53.642;10.640;2022-10-16T07:52:47;20.90;85.20
44461;DHT22;30162;53.642;10.640;2022-10-16T07:55:13;21.70;83.50
44461;DHT22;30162;53.642;10.640;2022-10-16T07:57:38;22.30;81.70
44461;DHT22;30162;53.642;10.640;2022-10-16T08:00:04;22.30;81.00
44461;DHT22;30162;53.642;10.640;2022-10-16T08:02:31;22.50;81.90
44461;DHT22;30162;53.642;10.640;2022-10-16T08:04:57;22.70;80.90
44461;DHT22;30162;53.642;10.640;2022-10-16T08:07:22;22.90;78.80
44461;DHT22;30162;53.642;10.640;2022-10-16T08:09:51;23.00;80.00
44461;DHT22;30162;53.642;10.640;2022-10-16T08:12:17;22.90;79.60
44461;DHT22;30162;53.642;10.640;2022-10-16T08:14:43;23.10;80.20
44461;DHT22;30162;53.642;10.640;2022-10-16T08:17:08;23.80;78.40
44461;DHT22;30162;53.642;10.640;2022-10-16T08:19:34;23.70;78.00
44461;DHT22;30162;53.642;10.640;2022-10-16T08:22:00;24.00;78.10
44461;DHT22;30162;53.642;10.640;2022-10-16T08:24:26;23.90;78.30
44461;DHT22;30162;53.642;10.640;2022-10-16T08:26:53;24.10;77.20
44461;DHT22;30162;53.642;10.640;2022-10-16T08:29:19;23.60;76.60
44461;DHT22;30162;53.642;10.640;2022-10-16T08:31:45;23.60;77.00
44461;DHT22;30162;53.642;10.640;2022-10-16T08:34:10;22.90;78.60
44461;DHT22;30162;53.642;10.640;2022-10-16T08:36:36;22.40;79.40
44461;DHT22;30162;53.642;10.640;2022-10-16T08:39:02;22.40;80.30
44461;DHT22;30162;53.642;10.640;2022-10-16T08:47:07;21.80;81.20
44461;DHT22;30162;53.642;10.640;2022-10-16T08:49:36;22.20;80.10
44461;DHT22;30162;53.642;10.640;2022-10-16T08:52:02;22.40;79.40
44461;DHT22;30162;53.642;10.640;2022-10-16T08:54:32;22.50;79.80
44461;DHT22;30162;53.642;10.640;2022-10-16T08:57:17;22.20;79.90
44461;DHT22;30162;53.642;10.640;2022-10-16T08:59:44;22.40;80.00
44461;DHT22;30162;53.642;10.640;2022-10-16T09:02:32;22.60;79.30
44461;DHT22;30162;53.642;10.640;2022-10-16T09:05:03;23.00;79.20
44461;DHT22;30162;53.642;10.640;2022-10-16T09:07:46;23.80;77.50
44461;DHT22;30162;53.642;10.640;2022-10-16T09:15:53;24.20;76.40
44461;DHT22;30162;53.642;10.640;2022-10-16T09:21:10;24.70;75.60
44461;DHT22;30162;53.642;10.640;2022-10-16T09:23:38;24.90;74.10
44461;DHT22;30162;53.642;10.640;2022-10-16T09:26:05;25.00;74.10
44461;DHT22;30162;53.642;10.640;2022-10-16T09:28:34;25.30;74.20
44461;DHT22;30162;53.642;10.640;2022-10-16T09:31:00;25.50;73.60
44461;DHT22;30162;53.642;10.640;2022-10-16T09:33:30;25.20;73.20
44461;DHT22;30162;53.642;10.640;2022-10-16T09:35:58;25.00;74.10
44461;DHT22;30162;53.642;10.640;2022-10-16T09:38:35;24.80;73.20
44461;DHT22;30162;53.642;10.640;2022-10-16T09:41:17;24.40;73.50
44461;DHT22;30162;53.642;10.640;2022-10-16T09:43:58;24.00;74.90
44461;DHT22;30162;53.642;10.640;2022-10-16T09:46:35;24.10;75.30
44461;DHT22;30162;53.642;10.640;2022-10-16T09:49:22;23.90;76.10
44461;DHT22;30162;53.642;10.640;2022-10-16T09:51:49;23.70;76.90
44461;DHT22;30162;53.642;10.640;2022-10-16T09:54:20;23.60;76.90
44461;DHT22;30162;53.642;10.640;2022-10-16T09:56:47;23.10;77.20
44461;DHT22;30162;53.642;10.640;2022-10-16T09:59:22;22.50;79.10
44461;DHT22;30162;53.642;10.640;2022-10-16T10:01:55;22.40;79.10
44461;DHT22;30162;53.642;10.640;2022-10-16T10:04:23;22.60;78.40
44461;DHT22;30162;53.642;10.640;2022-10-16T10:06:51;22.60;79.30
44461;DHT22;30162;53.642;10.640;2022-10-16T10:09:37;22.80;78.60
44461;DHT22;30162;53.642;10.640;2022-10-16T10:12:05;22.90;79.60
44461;DHT22;30162;53.642;10.640;2022-10-16T10:19:37;23.30;77.30
44461;DHT22;30162;53.642;10.640;2022-10-16T10:22:58;23.50;76.80
44461;DHT22;30162;53.642;10.640;2022-10-16T10:30:17;23.80;75.00
44461;DHT22;30162;53.642;10.640;2022-10-16T10:35:56;22.80;76.10
44461;DHT22;30162;53.642;10.640;2022-10-16T10:38:30;23.00;75.90
44461;DHT22;30162;53.642;10.640;2022-10-16T10:44:15;23.80;75.30
44461;DHT22;30162;53.642;10.640;2022-10-16T10:46:55;24.00;74.70
44461;DHT22;30162;53.642;10.640;2022-10-16T10:55:15;23.40;76.10
44461;DHT22;30162;53.642;10.640;2022-10-16T11:00:31;23.70;73.20
44461;DHT22;30162;53.642;10.640;2022-10-16T11:06:12;23.60;72.80
44461;DHT22;30162;53.642;10.640;2022-10-16T11:08:57;23.80;74.20
44461;DHT22;30162;53.642;10.640;2022-10-16T11:11:46;23.80;72.50
44461;DHT22;30162;53.642;10.640;2022-10-16T11:14:19;23.60;72.90
44461;DHT22;30162;53.642;10.640;2022-10-16T11:16:52;23.50;71.90
44461;DHT22;30162;53.642;10.640;2022-10-16T11:19:39;23.60;72.50
44461;DHT22;30162;53.642;10.640;2022-10-16T11:25:04;23.40;71.70
44461;DHT22;30162;53.642;10.640;2022-10-16T11:27:55;23.40;71.70
44461;DHT22;30162;53.642;10.640;2022-10-16T11:30:27;23.50;72.10
44461;DHT22;30162;53.642;10.640;2022-10-16T11:33:08;23.60;71.00
44461;DHT22;30162;53.642;10.640;2022-10-16T11:35:44;23.60;70.50
44461;DHT22;30162;53.642;10.640;2022-10-16T11:38:23;23.00;70.30
44461;DHT22;30162;53.642;10.640;2022-10-16T11:40:53;22.80;71.40
44461;DHT22;30162;53.642;10.640;2022-10-16T11:43:37;22.90;71.70
44461;DHT22;30162;53.642;10.640;2022-10-16T11:46:15;23.00;72.50
44461;DHT22;30162;53.642;10.640;2022-10-16T11:48:54;23.00;71.60
44461;DHT22;30162;53.642;10.640;2022-10-16T11:52:12;22.40;71.70
44461;DHT22;30162;53.642;10.640;2022-10-16T11:57:29;22.50;70.90
44461;DHT22;30162;53.642;10.640;2022-10-16T12:05:31;22.80;71.90
44461;DHT22;30162;53.642;10.640;2022-10-16T12:08:09;23.00;71.60
44461;DHT22;30162;53.642;10.640;2022-10-16T12:10:37;22.70;71.00
44461;DHT22;30162;53.642;10.640;2022-10-16T12:13:29;22.20;71.20
44461;DHT22;30162;53.642;10.640;2022-10-16T12:18:30;22.10;72.50
44461;DHT22;30162;53.642;10.640;2022-10-16T12:20:57;22.30;72.80
44461;DHT22;30162;53.642;10.640;2022-10-16T12:23:53;22.20;72.70
44461;DHT22;30162;53.642;10.640;2022-10-16T12:26:28;22.20;72.20
44461;DHT22;30162;53.642;10.640;2022-10-16T12:28:55;21.90;72.40
44461;DHT22;30162;53.642;10.640;2022-10-16T12:31:21;21.80;72.40
44461;DHT22;30162;53.642;10.640;2022-10-16T12:34:00;21.90;73.30
44461;DHT22;30162;53.642;10.640;2022-10-16T12:36:31;21.70;72.90
44461;DHT22;30162;53.642;10.640;2022-10-16T12:38:58;21.60;73.10
44461;DHT22;30162;53.642;10.640;2022-10-16T12:41:33;21.50;73.00
44461;DHT22;30162;53.642;10.640;2022-10-16T12:43:59;21.40;73.00
44461;DHT22;30162;53.642;10.640;2022-10-16T12:51:39;21.40;74.10
44461;DHT22;30162;53.642;10.640;2022-10-16T12:54:15;21.60;73.80
44461;DHT22;30162;53.642;10.640;2022-10-16T13:00:16;21.50;73.00
44461;DHT22;30162;53.642;10.640;2022-10-16T13:05:46;21.60;72.90
44461;DHT22;30162;53.642;10.640;2022-10-16T13:08:35;21.90;73.00
44461;DHT22;30162;53.642;10.640;2022-10-16T13:19:46;22.00;72.50
44461;DHT22;30162;53.642;10.640;2022-10-16T13:25:43;22.10;72.30
44461;DHT22;30162;53.642;10.640;2022-10-16T13:28:11;22.20;71.70
44461;DHT22;30162;53.642;10.640;2022-10-16T13:30:42;22.20;71.80
44461;DHT22;30162;53.642;10.640;2022-10-16T13:33:20;22.10;72.80
44461;DHT22;30162;53.642;10.640;2022-10-16T13:35:52;22.10;72.60
44461;DHT22;30162;53.642;10.640;2022-10-16T13:38:20;21.90;73.00
44461;DHT22;30162;53.642;10.640;2022-10-16T13:40:50;21.90;72.10
44461;DHT22;30162;53.642;10.640;2022-10-16T13:43:43;21.90;72.50
44461;DHT22;30162;53.642;10.640;2022-10-16T13:46:18;22.00;73.00
44461;DHT22;30162;53.642;10.640;2022-10-16T13:48:44;21.70;73.00
44461;DHT22;30162;53.642;10.640;2022-10-16T13:51:17;21.70;73.00
44461;DHT22;30162;53.642;10.640;2022-10-16T13:53:44;21.60;72.40
44461;DHT22;30162;53.642;10.640;2022-10-16T13:56:15;21.60;72.40
44461;DHT22;30162;53.642;10.640;2022-10-16T13:58:41;21.80;73.10
44461;DHT22;30162;53.642;10.640;2022-10-16T14:01:19;21.70;72.40
44461;DHT22;30162;53.642;10.640;2022-10-16T14:03:47;21.80;72.10
44461;DHT22;30162;53.642;10.640;2022-10-16T14:06:22;21.50;71.30
44461;DHT22;30162;53.642;10.640;2022-10-16T14:09:01;21.50;71.80
44461;DHT22;30162;53.642;10.640;2022-10-16T14:11:27;21.60;72.60
44461;DHT22;30162;53.642;10.640;2022-10-16T14:13:54;21.70;72.10
44461;DHT22;30162;53.642;10.640;2022-10-16T14:16:22;21.50;71.70
44461;DHT22;30162;53.642;10.640;2022-10-16T14:19:03;21.40;72.10
44461;DHT22;30162;53.642;10.640;2022-10-16T14:21:32;21.40;72.80
44461;DHT22;30162;53.642;10.640;2022-10-16T14:23:58;21.30;72.20
44461;DHT22;30162;53.642;10.640;2022-10-16T14:26:26;21.00;72.30
44461;DHT22;30162;53.642;10.640;2022-10-16T14:29:12;20.70;71.90
44461;DHT22;30162;53.642;10.640;2022-10-16T14:31:38;20.60;72.00
44461;DHT22;30162;53.642;10.640;2022-10-16T14:34:05;20.70;72.60
44461;DHT22;30162;53.642;10.640;2022-10-16T14:36:48;20.80;72.40
44461;DHT22;30162;53.642;10.640;2022-10-16T14:39:18;20.80;72.20
44461;DHT22;30162;53.642;10.640;2022-10-16T14:41:47;20.90;72.50
44461;DHT22;30162;53.642;10.640;2022-10-16T14:44:13;20.70;72.50
44461;DHT22;30162;53.642;10.640;2022-10-16T14:46:42;21.00;72.10
44461;DHT22;30162;53.642;10.640;2022-10-16T14:51:34;20.90;72.30
44461;DHT22;30162;53.642;10.640;2022-10-16T14:54:00;21.10;72.20
44461;DHT22;30162;53.642;10.640;2022-10-16T14:56:30;20.70;71.80
44461;DHT22;30162;53.642;10.640;2022-10-16T14:58:58;20.70;72.70
44461;DHT22;30162;53.642;10.640;2022-10-16T15:01:24;20.80;72.40
44461;DHT22;30162;53.642;10.640;2022-10-16T15:03:49;21.00;72.70
44461;DHT22;30162;53.642;10.640;2022-10-16T15:06:17;20.80;72.80
44461;DHT22;30162;53.642;10.640;2022-10-16T15:08:43;20.70;73.50
44461;DHT22;30162;53.642;10.640;2022-10-16T15:11:15;20.80;73.30
44461;DHT22;30162;53.642;10.640;2022-10-16T15:13:41;20.90;73.30
44461;DHT22;30162;53.642;10.640;2022-10-16T15:16:15;20.60;73.50
44461;DHT22;30162;53.642;10.640;2022-10-16T15:18:41;20.50;73.80
44461;DHT22;30162;53.642;10.640;2022-10-16T15:21:07;20.70;73.80
44461;DHT22;30162;53.642;10.640;2022-10-16T15:23:33;20.60;72.60
44461;DHT22;30162;53.642;10.640;2022-10-16T15:25:59;20.60;73.20
44461;DHT22;30162;53.642;10.640;2022-10-16T15:28:24;20.70;73.20
44461;DHT22;30162;53.642;10.640;2022-10-16T15:30:53;20.80;73.30
44461;DHT22;30162;53.642;10.640;2022-10-16T15:33:21;20.80;73.60
44461;DHT22;30162;53.642;10.640;2022-10-16T15:35:49;20.60;73.30
44461;DHT22;30162;53.642;10.640;2022-10-16T15:38:17;20.50;74.10
44461;DHT22;30162;53.642;10.640;2022-10-16T15:40:43;20.50;74.20
44461;DHT22;30162;53.642;10.640;2022-10-16T15:43:09;20.50;74.90
44461;DHT22;30162;53.642;10.640;2022-10-16T15:45:35;20.60;74.90
44461;DHT22;30162;53.642;10.640;2022-10-16T15:48:00;20.50;74.50
44461;DHT22;30162;53.642;10.640;2022-10-16T15:50:26;20.40;74.10
44461;DHT22;30162;53.642;10.640;2022-10-16T15:52:52;20.50;74.10
44461;DHT22;30162;53.642;10.640;2022-10-16T15:55:17;20.60;74.20
44461;DHT22;30162;53.642;10.640;2022-10-16T15:57:45;20.40;73.90
44461;DHT22;30162;53.642;10.640;2022-10-16T16:00:13;20.30;74.30
44461;DHT22;30162;53.642;10.640;2022-10-16T16:02:40;20.30;75.90
44461;DHT22;30162;53.642;10.640;2022-10-16T16:05:07;20.00;75.60
44461;DHT22;30162;53.642;10.640;2022-10-16T16:07:34;19.90;75.70
44461;DHT22;30162;53.642;10.640;2022-10-16T16:10:00;19.80;75.50
44461;DHT22;30162;53.642;10.640;2022-10-16T16:12:26;19.70;76.30
44461;DHT22;30162;53.642;10.640;2022-10-16T16:14:51;19.70;76.70
44461;DHT22;30162;53.642;10.640;2022-10-16T16:17:17;19.60;77.00
44461;DHT22;30162;53.642;10.640;2022-10-16T16:19:43;19.40;77.40
44461;DHT22;30162;53.642;10.640;2022-10-16T16:22:08;19.40;77.40
44461;DHT22;30162;53.642;10.640;2022-10-16T16:24:34;19.00;77.20
44461;DHT22;30162;53.642;10.640;2022-10-16T16:26:59;19.00;78.70
44461;DHT22;30162;53.642;10.640;2022-10-16T16:29:25;18.70;80.00
44461;DHT22;30162;53.642;10.640;2022-10-16T16:31:51;18.40;80.90
44461;DHT22;30162;53.642;10.640;2022-10-16T16:34:23;18.30;81.50
44461;DHT22;30162;53.642;10.640;2022-10-16T16:36:49;18.20;81.90
44461;DHT22;30162;53.642;10.640;2022-10-16T16:39:15;18.00;82.60
44461;DHT22;30162;53.642;10.640;2022-10-16T16:41:40;18.00;82.60
44461;DHT22;30162;53.642;10.640;2022-10-16T16:44:08;17.80;83.10
44461;DHT22;30162;53.642;10.640;2022-10-16T16:46:35;17.40;84.40
44461;DHT22;30162;53.642;10.640;2022-10-16T16:49:01;17.30;85.20
44461;DHT22;30162;53.642;10.640;2022-10-16T16:51:27;17.40;85.00
44461;DHT22;30162;53.642;10.640;2022-10-16T16:53:53;17.40;84.40
44461;DHT22;30162;53.642;10.640;2022-10-16T16:56:20;17.20;85.60
44461;DHT22;30162;53.642;10.640;2022-10-16T16:58:50;17.00;86.00
44461;DHT22;30162;53.642;10.640;2022-10-16T17:01:17;17.00;86.00
44461;DHT22;30162;53.642;10.640;2022-10-16T17:03:44;16.70;86.40
44461;DHT22;30162;53.642;10.640;2022-10-16T17:06:10;16.70;86.60
44461;DHT22;30162;53.642;10.640;2022-10-16T17:08:37;16.50;86.50